sensor_id;sensor_type;location;lat;lon;timestamp;P1;durP1;ratioP1;P2;durP2;ratioP2
11854;SDS011;5987;53.140;8.904;2023-03-14T00:02:12;6.13;;;2.60;;
11854;SDS011;5987;53.140;8.904;2023-03-14T00:05:15;5.47;;;2.77;;
11854;SDS011;5987;53.140;8.904;2023-03-14T00:08:19;6.77;;;2.60;;
11854;SDS011;5987;53.140;8.904;2023-03-14T00:11:23;6.53;;;2.70;;
11854;SDS011;5987;53.140;8.904;2023-03-14T00:14:27;6.33;;;2.60;;
11854;SDS011;5987;53.140;8.904;2023-03-14T00:17:33;5.70;;;2.57;;
11854;SDS011;5987;53.140;8.904;2023-03-14T00:20:37;8.20;;;3.10;;
11854;SDS011;5987;53.140;8.904;2023-03-14T00:23:41;6.50;;;2.40;;
11854;SDS011;5987;53.140;8.904;2023-03-14T00:26:45;4.43;;;2.57;;
11854;SDS011;5987;53.140;8.904;2023-03-14T00:29:49;6.93;;;3.20;;
11854;SDS011;5987;53.140;8.904;2023-03-14T00:32:54;9.37;;;2.97;;
11854;SDS011;5987;53.140;8.904;2023-03-14T00:35:58;8.43;;;3.07;;
11854;SDS011;5987;53.140;8.904;2023-03-14T00:39:04;6.67;;;2.70;;
11854;SDS011;5987;53.140;8.904;2023-03-14T00:42:08;8.23;;;3.40;;
11854;SDS011;5987;53.140;8.904;2023-03-14T00:45:11;4.07;;;2.40;;
11854;SDS011;5987;53.140;8.904;2023-03-14T00:48:17;8.00;;;3.17;;
11854;SDS011;5987;53.140;8.904;2023-03-14T00:51:22;9.90;;;3.20;;
11854;SDS011;5987;53.140;8.904;2023-03-14T00:54:25;8.43;;;3.97;;
11854;SDS011;5987;53.140;8.904;2023-03-14T00:57:29;13.07;;;3.17;;
11854;SDS011;5987;53.140;8.904;2023-03-14T01:00:33;8.13;;;2.83;;
11854;SDS011;5987;53.140;8.904;2023-03-14T01:03:39;8.53;;;3.57;;
11854;SDS011;5987;53.140;8.904;2023-03-14T01:06:43;7.23;;;3.33;;
11854;SDS011;5987;53.140;8.904;2023-03-14T01:09:49;5.27;;;3.50;;
11854;SDS011;5987;53.140;8.904;2023-03-14T01:12:54;7.13;;;3.47;;
11854;SDS011;5987;53.140;8.904;2023-03-14T01:16:00;6.67;;;3.60;;
11854;SDS011;5987;53.140;8.904;2023-03-14T01:19:07;8.23;;;4.10;;
11854;SDS011;5987;53.140;8.904;2023-03-14T01:22:11;11.07;;;4.60;;
11854;SDS011;5987;53.140;8.904;2023-03-14T01:25:16;9.00;;;4.37;;
11854;SDS011;5987;53.140;8.904;2023-03-14T01:28:20;9.60;;;4.40;;
11854;SDS011;5987;53.140;8.904;2023-03-14T01:31:24;7.93;;;4.80;;
11854;SDS011;5987;53.140;8.904;2023-03-14T01:34:30;12.67;;;5.10;;
11854;SDS011;5987;53.140;8.904;2023-03-14T01:37:34;8.33;;;5.00;;
11854;SDS011;5987;53.140;8.904;2023-03-14T01:40:41;10.23;;;5.53;;
11854;SDS011;5987;53.140;8.904;2023-03-14T01:43:45;10.13;;;5.83;;
11854;SDS011;5987;53.140;8.904;2023-03-14T01:46:50;7.97;;;4.77;;
11854;SDS011;5987;53.140;8.904;2023-03-14T01:49:56;12.00;;;5.60;;
11854;SDS011;5987;53.140;8.904;2023-03-14T01:53:06;10.33;;;5.50;;
11854;SDS011;5987;53.140;8.904;2023-03-14T01:56:11;8.83;;;4.60;;
11854;SDS011;5987;53.140;8.904;2023-03-14T01:59:18;8.20;;;4.67;;
11854;SDS011;5987;53.140;8.904;2023-03-14T02:02:23;12.27;;;5.10;;
11854;SDS011;5987;53.140;8.904;2023-03-14T02:05:32;8.50;;;4.53;;
11854;SDS011;5987;53.140;8.904;2023-03-14T02:08:40;12.80;;;4.77;;
11854;SDS011;5987;53.140;8.904;2023-03-14T02:11:45;8.63;;;4.13;;
11854;SDS011;5987;53.140;8.904;2023-03-14T02:14:49;8.83;;;5.03;;
11854;SDS011;5987;53.140;8.904;2023-03-14T02:17:53;8.03;;;4.60;;
11854;SDS011;5987;53.140;8.904;2023-03-14T02:21:00;10.10;;;4.40;;
11854;SDS011;5987;53.140;8.904;2023-03-14T02:24:13;10.30;;;4.03;;
11854;SDS011;5987;53.140;8.904;2023-03-14T02:27:30;7.93;;;4.87;;
11854;SDS011;5987;53.140;8.904;2023-03-14T02:30:34;8.20;;;4.17;;
11854;SDS011;5987;53.140;8.904;2023-03-14T02:33:38;7.40;;;4.33;;
11854;SDS011;5987;53.140;8.904;2023-03-14T02:36:41;7.37;;;4.03;;
11854;SDS011;5987;53.140;8.904;2023-03-14T02:39:45;6.97;;;4.23;;
11854;SDS011;5987;53.140;8.904;2023-03-14T02:42:52;9.43;;;4.87;;
11854;SDS011;5987;53.140;8.904;2023-03-14T02:45:55;7.10;;;4.17;;
11854;SDS011;5987;53.140;8.904;2023-03-14T02:49:00;7.93;;;4.47;;
11854;SDS011;5987;53.140;8.904;2023-03-14T02:52:07;8.17;;;4.23;;
11854;SDS011;5987;53.140;8.904;2023-03-14T02:55:12;9.93;;;4.60;;
11854;SDS011;5987;53.140;8.904;2023-03-14T02:58:17;11.33;;;4.90;;
11854;SDS011;5987;53.140;8.904;2023-03-14T03:01:21;9.27;;;3.97;;
11854;SDS011;5987;53.140;8.904;2023-03-14T03:04:25;9.80;;;3.73;;
11854;SDS011;5987;53.140;8.904;2023-03-14T03:07:29;9.00;;;4.00;;
11854;SDS011;5987;53.140;8.904;2023-03-14T03:10:33;7.87;;;3.87;;
11854;SDS011;5987;53.140;8.904;2023-03-14T03:13:38;7.17;;;3.30;;
11854;SDS011;5987;53.140;8.904;2023-03-14T03:16:41;5.90;;;3.50;;
11854;SDS011;5987;53.140;8.904;2023-03-14T03:19:45;8.90;;;3.20;;
11854;SDS011;5987;53.140;8.904;2023-03-14T03:22:49;7.53;;;3.50;;
11854;SDS011;5987;53.140;8.904;2023-03-14T03:25:52;8.67;;;2.90;;
11854;SDS011;5987;53.140;8.904;2023-03-14T03:28:57;10.10;;;2.83;;
11854;SDS011;5987;53.140;8.904;2023-03-14T03:32:01;11.50;;;3.27;;
11854;SDS011;5987;53.140;8.904;2023-03-14T03:35:05;4.70;;;3.03;;
11854;SDS011;5987;53.140;8.904;2023-03-14T03:38:10;7.53;;;4.10;;
11854;SDS011;5987;53.140;8.904;2023-03-14T03:41:14;11.10;;;2.73;;
11854;SDS011;5987;53.140;8.904;2023-03-14T03:44:19;8.23;;;3.43;;
11854;SDS011;5987;53.140;8.904;2023-03-14T03:47:23;9.77;;;3.93;;
11854;SDS011;5987;53.140;8.904;2023-03-14T03:50:27;9.63;;;3.50;;
11854;SDS011;5987;53.140;8.904;2023-03-14T03:53:30;7.57;;;3.70;;
11854;SDS011;5987;53.140;8.904;2023-03-14T03:56:34;7.43;;;3.60;;
11854;SDS011;5987;53.140;8.904;2023-03-14T03:59:39;6.43;;;4.20;;
11854;SDS011;5987;53.140;8.904;2023-03-14T04:02:43;6.80;;;4.60;;
11854;SDS011;5987;53.140;8.904;2023-03-14T04:05:57;8.27;;;4.47;;
11854;SDS011;5987;53.140;8.904;2023-03-14T04:09:01;9.93;;;4.20;;
11854;SDS011;5987;53.140;8.904;2023-03-14T04:12:05;9.03;;;3.60;;
11854;SDS011;5987;53.140;8.904;2023-03-14T04:15:11;9.67;;;3.47;;
11854;SDS011;5987;53.140;8.904;2023-03-14T04:18:14;9.80;;;4.17;;
11854;SDS011;5987;53.140;8.904;2023-03-14T04:21:18;6.90;;;4.20;;
11854;SDS011;5987;53.140;8.904;2023-03-14T04:24:22;11.10;;;4.67;;
11854;SDS011;5987;53.140;8.904;2023-03-14T04:27:26;7.57;;;3.63;;
11854;SDS011;5987;53.140;8.904;2023-03-14T04:30:31;8.50;;;3.57;;
11854;SDS011;5987;53.140;8.904;2023-03-14T04:33:36;9.27;;;3.10;;
11854;SDS011;5987;53.140;8.904;2023-03-14T04:36:39;6.30;;;3.13;;
11854;SDS011;5987;53.140;8.904;2023-03-14T04:39:43;7.77;;;3.57;;
11854;SDS011;5987;53.140;8.904;2023-03-14T04:42:47;9.00;;;3.57;;
11854;SDS011;5987;53.140;8.904;2023-03-14T04:45:52;8.63;;;3.50;;
11854;SDS011;5987;53.140;8.904;2023-03-14T04:48:57;8.53;;;3.87;;
11854;SDS011;5987;53.140;8.904;2023-03-14T04:52:00;4.80;;;3.47;;
11854;SDS011;5987;53.140;8.904;2023-03-14T04:55:05;6.37;;;3.27;;
11854;SDS011;5987;53.140;8.904;2023-03-14T04:58:09;9.67;;;4.20;;
11854;SDS011;5987;53.140;8.904;2023-03-14T05:01:14;4.63;;;3.57;;
11854;SDS011;5987;53.140;8.904;2023-03-14T05:04:19;8.47;;;3.53;;
11854;SDS011;5987;53.140;8.904;2023-03-14T05:07:22;10.20;;;3.93;;
11854;SDS011;5987;53.140;8.904;2023-03-14T05:10:26;9.00;;;3.33;;
11854;SDS011;5987;53.140;8.904;2023-03-14T05:13:30;11.73;;;3.77;;
11854;SDS011;5987;53.140;8.904;2023-03-14T05:16:35;5.47;;;3.10;;
11854;SDS011;5987;53.140;8.904;2023-03-14T05:19:38;9.13;;;2.40;;
11854;SDS011;5987;53.140;8.904;2023-03-14T05:22:42;5.30;;;2.07;;
11854;SDS011;5987;53.140;8.904;2023-03-14T05:25:46;8.60;;;2.30;;
11854;SDS011;5987;53.140;8.904;2023-03-14T05:28:57;6.67;;;2.13;;
11854;SDS011;5987;53.140;8.904;2023-03-14T05:32:03;3.97;;;1.77;;
11854;SDS011;5987;53.140;8.904;2023-03-14T05:35:07;5.17;;;1.63;;
11854;SDS011;5987;53.140;8.904;2023-03-14T05:38:11;4.70;;;1.63;;
11854;SDS011;5987;53.140;8.904;2023-03-14T05:41:15;7.67;;;1.80;;
11854;SDS011;5987;53.140;8.904;2023-03-14T05:44:18;5.27;;;1.67;;
11854;SDS011;5987;53.140;8.904;2023-03-14T05:47:23;5.03;;;1.50;;
11854;SDS011;5987;53.140;8.904;2023-03-14T05:50:27;3.40;;;1.80;;
11854;SDS011;5987;53.140;8.904;2023-03-14T05:53:31;8.03;;;1.50;;
11854;SDS011;5987;53.140;8.904;2023-03-14T05:56:35;9.30;;;2.07;;
11854;SDS011;5987;53.140;8.904;2023-03-14T05:59:39;6.57;;;1.40;;
11854;SDS011;5987;53.140;8.904;2023-03-14T06:02:44;4.60;;;1.80;;
11854;SDS011;5987;53.140;8.904;2023-03-14T06:05:49;5.30;;;2.00;;
11854;SDS011;5987;53.140;8.904;2023-03-14T06:08:53;6.13;;;1.40;;
11854;SDS011;5987;53.140;8.904;2023-03-14T06:11:57;5.43;;;1.50;;
11854;SDS011;5987;53.140;8.904;2023-03-14T06:15:01;4.57;;;1.30;;
11854;SDS011;5987;53.140;8.904;2023-03-14T06:18:06;6.13;;;1.50;;
11854;SDS011;5987;53.140;8.904;2023-03-14T06:21:10;3.23;;;1.40;;
11854;SDS011;5987;53.140;8.904;2023-03-14T06:24:14;5.47;;;1.63;;
11854;SDS011;5987;53.140;8.904;2023-03-14T06:27:18;4.50;;;1.07;;
11854;SDS011;5987;53.140;8.904;2023-03-14T06:30:21;7.33;;;1.23;;
11854;SDS011;5987;53.140;8.904;2023-03-14T06:33:27;5.17;;;0.97;;
11854;SDS011;5987;53.140;8.904;2023-03-14T06:36:30;4.63;;;1.10;;
11854;SDS011;5987;53.140;8.904;2023-03-14T06:39:34;2.33;;;0.70;;
11854;SDS011;5987;53.140;8.904;2023-03-14T06:42:39;4.73;;;1.30;;
11854;SDS011;5987;53.140;8.904;2023-03-14T06:45:43;3.23;;;1.20;;
11854;SDS011;5987;53.140;8.904;2023-03-14T06:48:48;7.23;;;1.57;;
11854;SDS011;5987;53.140;8.904;2023-03-14T06:51:52;4.00;;;1.13;;
11854;SDS011;5987;53.140;8.904;2023-03-14T06:54:56;3.27;;;0.90;;
11854;SDS011;5987;53.140;8.904;2023-03-14T06:58:00;2.97;;;1.13;;
11854;SDS011;5987;53.140;8.904;2023-03-14T07:01:03;7.70;;;1.50;;
11854;SDS011;5987;53.140;8.904;2023-03-14T07:04:10;4.17;;;1.37;;
11854;SDS011;5987;53.140;8.904;2023-03-14T07:07:13;6.07;;;1.60;;
11854;SDS011;5987;53.140;8.904;2023-03-14T07:10:18;2.57;;;1.23;;
11854;SDS011;5987;53.140;8.904;2023-03-14T07:13:21;7.67;;;1.70;;
11854;SDS011;5987;53.140;8.904;2023-03-14T07:16:25;5.60;;;1.57;;
11854;SDS011;5987;53.140;8.904;2023-03-14T07:19:31;4.37;;;1.50;;
11854;SDS011;5987;53.140;8.904;2023-03-14T07:22:35;4.40;;;1.70;;
11854;SDS011;5987;53.140;8.904;2023-03-14T07:25:39;4.83;;;1.97;;
11854;SDS011;5987;53.140;8.904;2023-03-14T07:28:42;5.97;;;1.43;;
11854;SDS011;5987;53.140;8.904;2023-03-14T07:31:46;7.20;;;2.00;;
11854;SDS011;5987;53.140;8.904;2023-03-14T07:34:51;6.57;;;2.00;;
11854;SDS011;5987;53.140;8.904;2023-03-14T07:37:55;7.20;;;2.40;;
11854;SDS011;5987;53.140;8.904;2023-03-14T07:40:59;4.50;;;1.87;;
11854;SDS011;5987;53.140;8.904;2023-03-14T07:44:03;6.63;;;1.93;;
11854;SDS011;5987;53.140;8.904;2023-03-14T07:47:07;6.93;;;2.53;;
11854;SDS011;5987;53.140;8.904;2023-03-14T07:50:15;7.50;;;1.83;;
11854;SDS011;5987;53.140;8.904;2023-03-14T07:53:19;7.27;;;1.97;;
11854;SDS011;5987;53.140;8.904;2023-03-14T07:56:24;5.03;;;1.87;;
11854;SDS011;5987;53.140;8.904;2023-03-14T07:59:28;9.90;;;2.20;;
11854;SDS011;5987;53.140;8.904;2023-03-14T08:02:31;3.97;;;1.87;;
11854;SDS011;5987;53.140;8.904;2023-03-14T08:05:37;10.20;;;2.07;;
11854;SDS011;5987;53.140;8.904;2023-03-14T08:08:41;7.67;;;1.93;;
11854;SDS011;5987;53.140;8.904;2023-03-14T08:11:44;4.37;;;2.00;;
11854;SDS011;5987;53.140;8.904;2023-03-14T08:14:48;8.37;;;2.13;;
11854;SDS011;5987;53.140;8.904;2023-03-14T08:17:52;8.17;;;1.90;;
11854;SDS011;5987;53.140;8.904;2023-03-14T08:20:57;8.53;;;2.53;;
11854;SDS011;5987;53.140;8.904;2023-03-14T08:24:00;5.33;;;1.80;;
11854;SDS011;5987;53.140;8.904;2023-03-14T08:27:04;4.60;;;1.90;;
11854;SDS011;5987;53.140;8.904;2023-03-14T08:30:12;5.77;;;2.13;;
11854;SDS011;5987;53.140;8.904;2023-03-14T08:33:18;3.30;;;1.80;;
11854;SDS011;5987;53.140;8.904;2023-03-14T08:36:23;4.63;;;1.70;;
11854;SDS011;5987;53.140;8.904;2023-03-14T08:39:27;6.33;;;1.50;;
11854;SDS011;5987;53.140;8.904;2023-03-14T08:42:30;8.07;;;1.73;;
11854;SDS011;5987;53.140;8.904;2023-03-14T08:45:49;5.43;;;2.10;;
11854;SDS011;5987;53.140;8.904;2023-03-14T08:48:52;6.13;;;1.53;;
11854;SDS011;5987;53.140;8.904;2023-03-14T08:51:58;6.90;;;1.60;;
11854;SDS011;5987;53.140;8.904;2023-03-14T08:55:01;6.37;;;1.80;;
11854;SDS011;5987;53.140;8.904;2023-03-14T08:58:05;3.10;;;1.80;;
11854;SDS011;5987;53.140;8.904;2023-03-14T09:01:09;6.43;;;2.73;;
11854;SDS011;5987;53.140;8.904;2023-03-14T09:04:13;6.00;;;2.13;;
11854;SDS011;5987;53.140;8.904;2023-03-14T09:07:19;5.53;;;1.53;;
11854;SDS011;5987;53.140;8.904;2023-03-14T09:10:23;7.73;;;3.10;;
11854;SDS011;5987;53.140;8.904;2023-03-14T09:13:26;7.60;;;2.40;;
11854;SDS011;5987;53.140;8.904;2023-03-14T09:16:30;4.20;;;1.27;;
11854;SDS011;5987;53.140;8.904;2023-03-14T09:19:36;4.07;;;1.23;;
11854;SDS011;5987;53.140;8.904;2023-03-14T09:22:41;2.30;;;1.60;;
11854;SDS011;5987;53.140;8.904;2023-03-14T09:25:45;5.27;;;2.00;;
11854;SDS011;5987;53.140;8.904;2023-03-14T09:28:48;1.50;;;1.10;;
11854;SDS011;5987;53.140;8.904;2023-03-14T09:31:52;2.13;;;1.00;;
11854;SDS011;5987;53.140;8.904;2023-03-14T09:34:56;2.00;;;0.97;;
11854;SDS011;5987;53.140;8.904;2023-03-14T09:38:01;2.83;;;1.10;;
11854;SDS011;5987;53.140;8.904;2023-03-14T09:41:11;7.27;;;2.00;;
11854;SDS011;5987;53.140;8.904;2023-03-14T09:44:21;4.23;;;0.90;;
11854;SDS011;5987;53.140;8.904;2023-03-14T09:47:30;3.30;;;1.13;;
11854;SDS011;5987;53.140;8.904;2023-03-14T09:50:43;2.90;;;0.80;;
11854;SDS011;5987;53.140;8.904;2023-03-14T09:53:53;3.23;;;0.77;;
11854;SDS011;5987;53.140;8.904;2023-03-14T09:56:56;2.93;;;0.77;;
11854;SDS011;5987;53.140;8.904;2023-03-14T10:00:02;2.07;;;0.57;;
11854;SDS011;5987;53.140;8.904;2023-03-14T10:03:21;1.87;;;0.43;;
11854;SDS011;5987;53.140;8.904;2023-03-14T10:06:29;0.60;;;0.50;;
11854;SDS011;5987;53.140;8.904;2023-03-14T10:09:35;0.87;;;0.50;;
11854;SDS011;5987;53.140;8.904;2023-03-14T10:12:39;0.93;;;0.40;;
11854;SDS011;5987;53.140;8.904;2023-03-14T10:15:46;0.40;;;0.40;;
11854;SDS011;5987;53.140;8.904;2023-03-14T10:18:58;0.67;;;0.50;;
11854;SDS011;5987;53.140;8.904;2023-03-14T10:22:10;2.10;;;0.30;;
11854;SDS011;5987;53.140;8.904;2023-03-14T10:25:25;0.30;;;0.30;;
11854;SDS011;5987;53.140;8.904;2023-03-14T10:28:32;1.00;;;0.40;;
11854;SDS011;5987;53.140;8.904;2023-03-14T10:31:46;0.37;;;0.37;;
11854;SDS011;5987;53.140;8.904;2023-03-14T10:38:25;0.93;;;0.30;;
11854;SDS011;5987;53.140;8.904;2023-03-14T10:41:32;0.90;;;0.47;;
11854;SDS011;5987;53.140;8.904;2023-03-14T10:44:36;0.30;;;0.30;;
11854;SDS011;5987;53.140;8.904;2023-03-14T10:47:47;0.87;;;0.30;;
11854;SDS011;5987;53.140;8.904;2023-03-14T10:50:55;0.40;;;0.40;;
11854;SDS011;5987;53.140;8.904;2023-03-14T10:54:12;0.30;;;0.30;;
11854;SDS011;5987;53.140;8.904;2023-03-14T10:57:23;1.00;;;0.50;;
11854;SDS011;5987;53.140;8.904;2023-03-14T11:00:27;0.63;;;0.50;;
11854;SDS011;5987;53.140;8.904;2023-03-14T11:03:34;1.50;;;0.50;;
11854;SDS011;5987;53.140;8.904;2023-03-14T11:06:47;6.90;;;1.57;;
11854;SDS011;5987;53.140;8.904;2023-03-14T11:10:00;0.90;;;0.50;;
11854;SDS011;5987;53.140;8.904;2023-03-14T11:13:20;2.53;;;0.60;;
11854;SDS011;5987;53.140;8.904;2023-03-14T11:16:32;1.77;;;0.60;;
11854;SDS011;5987;53.140;8.904;2023-03-14T11:19:53;3.37;;;0.90;;
11854;SDS011;5987;53.140;8.904;2023-03-14T11:23:14;4.97;;;1.00;;
11854;SDS011;5987;53.140;8.904;2023-03-14T11:26:26;5.13;;;1.23;;
11854;SDS011;5987;53.140;8.904;2023-03-14T11:29:41;6.40;;;1.17;;
11854;SDS011;5987;53.140;8.904;2023-03-14T11:32:56;3.53;;;1.00;;
11854;SDS011;5987;53.140;8.904;2023-03-14T11:36:08;2.83;;;1.10;;
11854;SDS011;5987;53.140;8.904;2023-03-14T11:39:19;4.40;;;1.37;;
11854;SDS011;5987;53.140;8.904;2023-03-14T11:42:24;3.67;;;1.50;;
11854;SDS011;5987;53.140;8.904;2023-03-14T11:45:32;7.87;;;1.17;;
11854;SDS011;5987;53.140;8.904;2023-03-14T11:48:42;9.70;;;1.67;;
11854;SDS011;5987;53.140;8.904;2023-03-14T11:51:55;3.80;;;1.47;;
11854;SDS011;5987;53.140;8.904;2023-03-14T11:55:05;5.77;;;1.10;;
11854;SDS011;5987;53.140;8.904;2023-03-14T11:58:19;5.93;;;1.50;;
11854;SDS011;5987;53.140;8.904;2023-03-14T12:01:36;7.67;;;1.30;;
11854;SDS011;5987;53.140;8.904;2023-03-14T12:05:00;11.47;;;1.73;;
11854;SDS011;5987;53.140;8.904;2023-03-14T12:08:47;10.33;;;2.00;;
11854;SDS011;5987;53.140;8.904;2023-03-14T12:11:56;7.33;;;1.70;;
11854;SDS011;5987;53.140;8.904;2023-03-14T12:15:04;12.10;;;2.30;;
11854;SDS011;5987;53.140;8.904;2023-03-14T12:18:27;8.73;;;2.07;;
11854;SDS011;5987;53.140;8.904;2023-03-14T12:21:43;10.20;;;1.83;;
11854;SDS011;5987;53.140;8.904;2023-03-14T12:24:53;13.77;;;2.40;;
11854;SDS011;5987;53.140;8.904;2023-03-14T12:28:04;10.03;;;2.40;;
11854;SDS011;5987;53.140;8.904;2023-03-14T12:31:38;11.87;;;1.93;;
11854;SDS011;5987;53.140;8.904;2023-03-14T12:34:48;10.17;;;3.00;;
11854;SDS011;5987;53.140;8.904;2023-03-14T12:37:52;9.00;;;1.73;;
11854;SDS011;5987;53.140;8.904;2023-03-14T12:41:01;9.87;;;2.57;;
11854;SDS011;5987;53.140;8.904;2023-03-14T12:44:38;7.90;;;2.17;;
11854;SDS011;5987;53.140;8.904;2023-03-14T12:47:51;9.43;;;2.00;;
11854;SDS011;5987;53.140;8.904;2023-03-14T12:51:26;10.00;;;2.50;;
11854;SDS011;5987;53.140;8.904;2023-03-14T12:54:37;9.40;;;2.57;;
11854;SDS011;5987;53.140;8.904;2023-03-14T12:57:49;6.07;;;2.30;;
11854;SDS011;5987;53.140;8.904;2023-03-14T13:01:05;8.40;;;2.13;;
11854;SDS011;5987;53.140;8.904;2023-03-14T13:04:19;5.33;;;1.30;;
11854;SDS011;5987;53.140;8.904;2023-03-14T13:11:09;5.80;;;1.60;;
11854;SDS011;5987;53.140;8.904;2023-03-14T13:14:17;4.07;;;1.37;;
11854;SDS011;5987;53.140;8.904;2023-03-14T13:17:25;9.33;;;1.93;;
11854;SDS011;5987;53.140;8.904;2023-03-14T13:20:38;7.43;;;2.13;;
11854;SDS011;5987;53.140;8.904;2023-03-14T13:23:59;9.53;;;1.43;;
11854;SDS011;5987;53.140;8.904;2023-03-14T13:27:08;5.17;;;1.40;;
11854;SDS011;5987;53.140;8.904;2023-03-14T13:30:23;7.40;;;1.60;;
11854;SDS011;5987;53.140;8.904;2023-03-14T13:33:30;4.80;;;0.97;;
11854;SDS011;5987;53.140;8.904;2023-03-14T13:36:36;8.03;;;1.53;;
11854;SDS011;5987;53.140;8.904;2023-03-14T13:39:42;3.27;;;1.00;;
11854;SDS011;5987;53.140;8.904;2023-03-14T13:42:59;9.50;;;2.13;;
11854;SDS011;5987;53.140;8.904;2023-03-14T13:46:15;8.83;;;1.67;;
11854;SDS011;5987;53.140;8.904;2023-03-14T13:49:24;9.07;;;1.50;;
11854;SDS011;5987;53.140;8.904;2023-03-14T13:52:32;6.17;;;1.77;;
11854;SDS011;5987;53.140;8.904;2023-03-14T13:55:41;6.90;;;1.40;;
11854;SDS011;5987;53.140;8.904;2023-03-14T13:58:45;4.70;;;1.30;;
11854;SDS011;5987;53.140;8.904;2023-03-14T14:01:49;6.27;;;1.80;;
11854;SDS011;5987;53.140;8.904;2023-03-14T14:04:55;7.03;;;1.50;;
11854;SDS011;5987;53.140;8.904;2023-03-14T14:07:59;10.40;;;2.23;;
11854;SDS011;5987;53.140;8.904;2023-03-14T14:11:07;6.87;;;1.57;;
11854;SDS011;5987;53.140;8.904;2023-03-14T14:14:33;6.30;;;1.67;;
11854;SDS011;5987;53.140;8.904;2023-03-14T14:17:43;6.20;;;1.80;;
11854;SDS011;5987;53.140;8.904;2023-03-14T14:20:51;9.90;;;1.37;;
11854;SDS011;5987;53.140;8.904;2023-03-14T14:23:55;6.80;;;1.43;;
11854;SDS011;5987;53.140;8.904;2023-03-14T14:27:01;9.03;;;1.80;;
11854;SDS011;5987;53.140;8.904;2023-03-14T14:30:26;4.73;;;1.33;;
11854;SDS011;5987;53.140;8.904;2023-03-14T14:33:40;5.93;;;1.27;;
11854;SDS011;5987;53.140;8.904;2023-03-14T14:36:46;4.00;;;1.40;;
11854;SDS011;5987;53.140;8.904;2023-03-14T14:39:53;6.07;;;1.37;;
11854;SDS011;5987;53.140;8.904;2023-03-14T14:43:03;8.57;;;1.67;;
11854;SDS011;5987;53.140;8.904;2023-03-14T14:46:08;8.13;;;1.67;;
11854;SDS011;5987;53.140;8.904;2023-03-14T14:49:18;6.73;;;1.37;;
11854;SDS011;5987;53.140;8.904;2023-03-14T14:52:30;4.80;;;1.25;;
11854;SDS011;5987;53.140;8.904;2023-03-14T14:55:41;2.83;;;0.83;;
11854;SDS011;5987;53.140;8.904;2023-03-14T14:58:47;2.53;;;1.03;;
11854;SDS011;5987;53.140;8.904;2023-03-14T15:01:55;7.10;;;2.00;;
11854;SDS011;5987;53.140;8.904;2023-03-14T15:05:01;6.73;;;1.10;;
11854;SDS011;5987;53.140;8.904;2023-03-14T15:08:07;5.27;;;1.20;;
11854;SDS011;5987;53.140;8.904;2023-03-14T15:11:14;7.47;;;1.60;;
11854;SDS011;5987;53.140;8.904;2023-03-14T15:14:22;3.77;;;1.50;;
11854;SDS011;5987;53.140;8.904;2023-03-14T15:17:26;5.17;;;1.07;;
11854;SDS011;5987;53.140;8.904;2023-03-14T15:20:30;7.50;;;1.53;;
11854;SDS011;5987;53.140;8.904;2023-03-14T15:23:34;7.17;;;1.70;;
11854;SDS011;5987;53.140;8.904;2023-03-14T15:26:38;12.60;;;1.97;;
11854;SDS011;5987;53.140;8.904;2023-03-14T15:29:43;6.40;;;1.57;;
11854;SDS011;5987;53.140;8.904;2023-03-14T15:32:47;8.63;;;1.67;;
11854;SDS011;5987;53.140;8.904;2023-03-14T15:35:51;9.75;;;2.08;;
11854;SDS011;5987;53.140;8.904;2023-03-14T15:38:55;10.47;;;2.07;;
11854;SDS011;5987;53.140;8.904;2023-03-14T15:42:00;6.50;;;1.63;;
11854;SDS011;5987;53.140;8.904;2023-03-14T15:45:06;8.03;;;1.60;;
11854;SDS011;5987;53.140;8.904;2023-03-14T15:48:12;4.67;;;1.27;;
11854;SDS011;5987;53.140;8.904;2023-03-14T15:51:19;8.63;;;2.60;;
11854;SDS011;5987;53.140;8.904;2023-03-14T15:54:23;7.60;;;1.63;;
11854;SDS011;5987;53.140;8.904;2023-03-14T15:57:30;11.20;;;2.00;;
11854;SDS011;5987;53.140;8.904;2023-03-14T16:00:35;3.73;;;1.53;;
11854;SDS011;5987;53.140;8.904;2023-03-14T16:03:39;10.67;;;2.13;;
11854;SDS011;5987;53.140;8.904;2023-03-14T16:06:45;6.90;;;1.57;;
11854;SDS011;5987;53.140;8.904;2023-03-14T16:09:49;6.57;;;1.80;;
11854;SDS011;5987;53.140;8.904;2023-03-14T16:12:52;8.10;;;1.37;;
11854;SDS011;5987;53.140;8.904;2023-03-14T16:15:58;7.67;;;1.17;;
11854;SDS011;5987;53.140;8.904;2023-03-14T16:19:05;8.43;;;1.10;;
11854;SDS011;5987;53.140;8.904;2023-03-14T16:22:09;9.10;;;1.80;;
11854;SDS011;5987;53.140;8.904;2023-03-14T16:25:13;4.20;;;1.10;;
11854;SDS011;5987;53.140;8.904;2023-03-14T16:28:19;4.23;;;1.30;;
11854;SDS011;5987;53.140;8.904;2023-03-14T16:31:24;5.90;;;1.57;;
11854;SDS011;5987;53.140;8.904;2023-03-14T16:34:29;4.13;;;1.40;;
11854;SDS011;5987;53.140;8.904;2023-03-14T16:37:33;9.63;;;1.37;;
11854;SDS011;5987;53.140;8.904;2023-03-14T16:40:37;5.47;;;1.30;;
11854;SDS011;5987;53.140;8.904;2023-03-14T16:43:41;11.60;;;1.77;;
11854;SDS011;5987;53.140;8.904;2023-03-14T16:46:47;7.13;;;1.30;;
11854;SDS011;5987;53.140;8.904;2023-03-14T16:49:51;9.70;;;1.80;;
11854;SDS011;5987;53.140;8.904;2023-03-14T16:52:55;3.93;;;1.40;;
11854;SDS011;5987;53.140;8.904;2023-03-14T16:55:59;4.07;;;1.60;;
11854;SDS011;5987;53.140;8.904;2023-03-14T16:59:03;4.67;;;1.47;;
11854;SDS011;5987;53.140;8.904;2023-03-14T17:02:09;6.33;;;1.60;;
11854;SDS011;5987;53.140;8.904;2023-03-14T17:05:13;8.37;;;1.40;;
11854;SDS011;5987;53.140;8.904;2023-03-14T17:08:17;7.93;;;1.67;;
11854;SDS011;5987;53.140;8.904;2023-03-14T17:11:22;2.87;;;1.03;;
11854;SDS011;5987;53.140;8.904;2023-03-14T17:14:26;4.07;;;1.10;;
11854;SDS011;5987;53.140;8.904;2023-03-14T17:17:31;7.53;;;1.23;;
11854;SDS011;5987;53.140;8.904;2023-03-14T17:20:35;3.07;;;1.10;;
11854;SDS011;5987;53.140;8.904;2023-03-14T17:23:41;4.13;;;1.40;;
11854;SDS011;5987;53.140;8.904;2023-03-14T17:26:45;4.63;;;1.10;;
11854;SDS011;5987;53.140;8.904;2023-03-14T17:29:48;9.73;;;2.10;;
11854;SDS011;5987;53.140;8.904;2023-03-14T17:32:53;5.83;;;1.87;;
11854;SDS011;5987;53.140;8.904;2023-03-14T17:35:59;5.77;;;1.30;;
11854;SDS011;5987;53.140;8.904;2023-03-14T17:39:03;10.17;;;1.37;;
11854;SDS011;5987;53.140;8.904;2023-03-14T17:42:06;8.53;;;1.50;;
11854;SDS011;5987;53.140;8.904;2023-03-14T17:45:10;5.43;;;1.33;;
11854;SDS011;5987;53.140;8.904;2023-03-14T17:48:15;5.60;;;1.50;;
11854;SDS011;5987;53.140;8.904;2023-03-14T17:51:19;3.40;;;1.37;;
11854;SDS011;5987;53.140;8.904;2023-03-14T17:54:23;4.40;;;1.40;;
11854;SDS011;5987;53.140;8.904;2023-03-14T17:57:27;7.87;;;1.70;;
11854;SDS011;5987;53.140;8.904;2023-03-14T18:00:31;2.17;;;1.10;;
11854;SDS011;5987;53.140;8.904;2023-03-14T18:03:36;3.90;;;1.30;;
11854;SDS011;5987;53.140;8.904;2023-03-14T18:06:40;6.73;;;1.90;;
11854;SDS011;5987;53.140;8.904;2023-03-14T18:09:45;6.73;;;1.87;;
11854;SDS011;5987;53.140;8.904;2023-03-14T18:12:49;7.27;;;1.33;;
11854;SDS011;5987;53.140;8.904;2023-03-14T18:15:52;6.67;;;1.43;;
11854;SDS011;5987;53.140;8.904;2023-03-14T18:18:58;3.43;;;1.20;;
11854;SDS011;5987;53.140;8.904;2023-03-14T18:22:02;8.37;;;1.50;;
11854;SDS011;5987;53.140;8.904;2023-03-14T18:25:07;1.80;;;0.97;;
11854;SDS011;5987;53.140;8.904;2023-03-14T18:28:12;6.80;;;1.43;;
11854;SDS011;5987;53.140;8.904;2023-03-14T18:31:16;6.33;;;1.23;;
11854;SDS011;5987;53.140;8.904;2023-03-14T18:34:24;5.73;;;1.10;;
11854;SDS011;5987;53.140;8.904;2023-03-14T18:37:29;5.73;;;1.23;;
11854;SDS011;5987;53.140;8.904;2023-03-14T18:40:33;4.17;;;1.73;;
11854;SDS011;5987;53.140;8.904;2023-03-14T18:43:37;4.60;;;1.40;;
11854;SDS011;5987;53.140;8.904;2023-03-14T18:46:41;3.53;;;1.33;;
11854;SDS011;5987;53.140;8.904;2023-03-14T18:49:46;3.57;;;1.33;;
11854;SDS011;5987;53.140;8.904;2023-03-14T18:52:50;5.73;;;1.43;;
11854;SDS011;5987;53.140;8.904;2023-03-14T18:55:54;2.93;;;1.07;;
11854;SDS011;5987;53.140;8.904;2023-03-14T18:58:57;4.17;;;1.17;;
11854;SDS011;5987;53.140;8.904;2023-03-14T19:02:01;4.93;;;2.23;;
11854;SDS011;5987;53.140;8.904;2023-03-14T19:05:07;5.33;;;1.43;;
11854;SDS011;5987;53.140;8.904;2023-03-14T19:08:13;6.07;;;1.77;;